createdAt,value
2018-05-02T00:00:52.792Z,0
2018-05-02T00:01:53.004Z,0
2018-05-02T00:02:53.506Z,0
2018-05-02T00:03:53.489Z,0
2018-05-02T00:04:52.959Z,0
2018-05-02T00:05:53.216Z,0
2018-05-02T00:06:53.190Z,0
2018-05-02T00:07:52.915Z,0
2018-05-02T00:08:52.897Z,0
2018-05-02T00:09:53.408Z,0
2018-05-02T00:10:52.918Z,0
2018-05-02T00:11:53.369Z,0
2018-05-02T00:12:53.104Z,0
2018-05-02T00:13:53.355Z,0
2018-05-02T00:14:53.081Z,0
2018-05-02T00:15:53.061Z,0
2018-05-02T00:16:53.044Z,0
2018-05-02T00:17:53.292Z,0
2018-05-02T00:18:53.016Z,0
2018-05-02T00:19:52.483Z,0
2018-05-02T00:20:52.984Z,0
2018-05-02T00:21:52.711Z,0
2018-05-02T00:22:53.206Z,0
2018-05-02T00:23:52.943Z,0
2018-05-02T00:24:52.926Z,0
2018-05-02T00:25:52.657Z,0
2018-05-02T00:26:53.168Z,0
2018-05-02T00:27:52.880Z,0
2018-05-02T00:28:53.032Z,0
2018-05-02T00:29:53.107Z,0
2018-05-02T00:30:53.169Z,0
2018-05-02T00:31:52.569Z,0
2018-05-02T00:32:53.072Z,0
2018-05-02T00:33:52.790Z,0
2018-05-02T00:34:52.783Z,0
2018-05-02T00:35:52.509Z,0
2018-05-02T00:36:52.232Z,0
2018-05-02T00:37:52.993Z,0
2018-05-02T00:38:52.991Z,0
2018-05-02T00:39:52.717Z,0
2018-05-02T00:40:52.702Z,0
2018-05-02T00:41:52.414Z,0
2018-05-02T00:42:52.666Z,0
2018-05-02T00:43:52.385Z,0
2018-05-02T00:44:52.888Z,0
2018-05-02T00:45:52.358Z,0
2018-05-02T00:46:52.596Z,0
2018-05-02T00:47:52.583Z,0
2018-05-02T00:48:52.573Z,0
2018-05-02T00:49:52.816Z,0
2018-05-02T00:50:52.284Z,0
2018-05-02T00:51:52.785Z,0
2018-05-02T00:52:52.253Z,0
2018-05-02T00:53:52.237Z,0
2018-05-02T00:54:52.750Z,0
2018-05-02T00:55:52.209Z,0
2018-05-02T00:56:52.707Z,0
2018-05-02T00:57:52.440Z,0
2018-05-02T00:58:52.167Z,0
2018-05-02T00:59:52.411Z,0
2018-05-02T01:00:52.668Z,0
2018-05-02T01:01:52.129Z,0
2018-05-02T01:02:52.105Z,0
2018-05-02T01:03:52.348Z,0
2018-05-02T01:04:52.590Z,0
2018-05-02T01:05:52.587Z,0
2018-05-02T01:06:52.304Z,0
2018-05-02T01:07:52.304Z,0
2018-05-02T01:08:52.289Z,0
2018-05-02T01:09:52.006Z,0
2018-05-02T01:10:52.330Z,0
2018-05-02T01:11:51.975Z,0
2018-05-02T01:12:51.703Z,0
2018-05-02T01:13:52.209Z,0
2018-05-02T01:14:52.185Z,0
2018-05-02T01:15:52.182Z,0
2018-05-02T01:16:52.426Z,0
2018-05-02T01:17:51.888Z,0
2018-05-02T01:18:52.400Z,0
2018-05-02T01:19:51.862Z,0
2018-05-02T01:20:52.365Z,0
2018-05-02T01:21:51.832Z,0
2018-05-02T01:22:51.822Z,0
2018-05-02T01:23:52.066Z,0
2018-05-02T01:24:51.846Z,0
2018-05-02T01:25:52.053Z,0
2018-05-02T01:26:51.765Z,0
2018-05-02T01:27:52.020Z,0
2018-05-02T01:28:52.248Z,0
2018-05-02T01:29:51.979Z,0
2018-05-02T01:30:51.970Z,0
2018-05-02T01:31:51.700Z,0
2018-05-02T01:32:52.206Z,0
2018-05-02T01:33:52.194Z,0
2018-05-02T01:34:51.663Z,0
2018-05-02T01:35:51.637Z,0
2018-05-02T01:36:52.143Z,0
2018-05-02T01:37:52.136Z,0
2018-05-02T01:38:51.863Z,0
2018-05-02T01:39:51.579Z,0
2018-05-02T01:40:51.308Z,0
2018-05-02T01:41:51.813Z,0
2018-05-02T01:42:51.537Z,0
2018-05-02T01:43:51.523Z,0
2018-05-02T01:44:51.768Z,0
2018-05-02T01:45:51.757Z,0
2018-05-02T01:46:51.753Z,0
2018-05-02T01:47:51.472Z,0
2018-05-02T01:48:51.970Z,0
2018-05-02T01:49:51.700Z,0
2018-05-02T01:50:51.182Z,0
2018-05-02T01:51:51.671Z,0
2018-05-02T01:52:51.916Z,0
2018-05-02T01:53:51.907Z,0
2018-05-02T01:54:51.639Z,0
2018-05-02T01:55:51.617Z,0
2018-05-02T01:56:51.604Z,0
2018-05-02T01:57:51.589Z,0
2018-05-02T01:58:51.060Z,0
2018-05-02T01:59:51.563Z,0
2018-05-02T02:00:51.298Z,0
2018-05-02T02:01:51.540Z,0
2018-05-02T02:02:51.532Z,0
2018-05-02T02:03:51.578Z,0
2018-05-02T02:04:51.516Z,0
2018-05-02T02:05:51.484Z,0
2018-05-02T02:06:51.471Z,0
2018-05-02T02:07:51.788Z,0
2018-05-02T02:08:50.929Z,0
2018-05-02T02:09:51.434Z,0
2018-05-02T02:10:50.901Z,0
2018-05-02T02:11:51.662Z,0
2018-05-02T02:12:51.395Z,0
2018-05-02T02:13:51.640Z,0
2018-05-02T02:14:51.106Z,0
2018-05-02T02:15:51.611Z,0
2018-05-02T02:16:51.336Z,0
2018-05-02T02:17:51.582Z,0
2018-05-02T02:18:51.574Z,0
2018-05-02T02:19:51.558Z,0
2018-05-02T02:20:51.057Z,0
2018-05-02T02:21:51.280Z,0
2018-05-02T02:22:51.264Z,0
2018-05-02T02:23:51.249Z,0
2018-05-02T02:24:51.230Z,0
2018-05-02T02:25:51.472Z,0
2018-05-02T02:26:50.947Z,0
2018-05-02T02:27:51.201Z,0
2018-05-02T02:28:51.182Z,0
2018-05-02T02:29:50.396Z,0
2018-05-02T02:30:51.414Z,0
2018-05-02T02:31:51.142Z,0
2018-05-02T02:32:51.129Z,0
2018-05-02T02:33:50.613Z,0
2018-05-02T02:34:50.848Z,0
2018-05-02T02:35:51.094Z,0
2018-05-02T02:36:51.102Z,0
2018-05-02T02:37:51.331Z,0
2018-05-02T02:38:50.801Z,0
2018-05-02T02:39:51.069Z,0
2018-05-02T02:40:51.034Z,0
2018-05-02T02:41:51.308Z,0
2018-05-02T02:42:50.997Z,0
2018-05-02T02:43:50.987Z,0
2018-05-02T02:44:51.234Z,0
2018-05-02T02:45:50.964Z,0
2018-05-02T02:46:50.948Z,0
2018-05-02T02:47:50.955Z,0
2018-05-02T02:48:51.179Z,0
2018-05-02T02:49:50.650Z,0
2018-05-02T02:50:51.164Z,0
2018-05-02T02:51:51.155Z,0
2018-05-02T02:52:51.127Z,0
2018-05-02T02:53:51.110Z,0
2018-05-02T02:54:50.847Z,0
2018-05-02T02:55:51.102Z,0
2018-05-02T02:56:51.089Z,0
2018-05-02T02:57:50.812Z,0
2018-05-02T02:58:51.071Z,0
2018-05-02T02:59:50.525Z,0
2018-05-02T03:00:50.515Z,0
2018-05-02T03:01:51.013Z,0
2018-05-02T03:02:51.001Z,0
2018-05-02T03:03:50.983Z,0
2018-05-02T03:04:50.719Z,0
2018-05-02T03:05:50.703Z,0
2018-05-02T03:06:50.446Z,0
2018-05-02T03:07:50.177Z,0
2018-05-02T03:08:50.665Z,0
2018-05-02T03:09:50.663Z,0
2018-05-02T03:10:50.646Z,0
2018-05-02T03:11:50.379Z,0
2018-05-02T03:12:50.876Z,0
2018-05-02T03:13:50.612Z,0
2018-05-02T03:14:50.325Z,0
2018-05-02T03:15:50.315Z,0
2018-05-02T03:16:50.559Z,0
2018-05-02T03:17:50.808Z,0
2018-05-02T03:18:50.279Z,0
2018-05-02T03:19:50.264Z,0
2018-05-02T03:20:50.512Z,0
2018-05-02T03:21:50.248Z,0
2018-05-02T03:22:50.481Z,0
2018-05-02T03:23:50.728Z,0
2018-05-02T03:24:50.710Z,0
2018-05-02T03:25:50.440Z,0
2018-05-02T03:26:50.428Z,0
2018-05-02T03:27:50.419Z,0
2018-05-02T03:28:50.410Z,0
2018-05-02T03:29:49.875Z,0
2018-05-02T03:30:50.384Z,0
2018-05-02T03:31:50.625Z,0
2018-05-02T03:32:50.092Z,0
2018-05-02T03:33:50.606Z,0
2018-05-02T03:34:50.328Z,0
2018-05-02T03:35:50.313Z,0
2018-05-02T03:36:50.043Z,0
2018-05-02T03:37:49.770Z,0
2018-05-02T03:38:50.534Z,0
2018-05-02T03:39:50.516Z,0
2018-05-02T03:40:50.253Z,0
2018-05-02T03:41:50.506Z,0
2018-05-02T03:42:50.476Z,0
2018-05-02T03:43:50.208Z,0
2018-05-02T03:44:50.459Z,5
2018-05-02T03:45:50.458Z,5
2018-05-02T03:46:50.236Z,5
2018-05-02T03:47:50.157Z,5
2018-05-02T03:48:49.881Z,5
2018-05-02T03:49:50.131Z,5
2018-05-02T03:50:50.128Z,5
2018-05-02T03:51:50.361Z,5
2018-05-02T03:52:50.356Z,5
2018-05-02T03:53:50.078Z,5
2018-05-02T03:54:49.806Z,5
2018-05-02T03:55:49.792Z,5
2018-05-02T03:56:49.785Z,5
2018-05-02T03:57:50.285Z,5
2018-05-02T03:58:50.268Z,5
2018-05-02T03:59:49.944Z,5
2018-05-02T04:00:50.249Z,5
2018-05-02T04:01:49.987Z,10
2018-05-02T04:02:49.963Z,10
2018-05-02T04:03:49.955Z,10
2018-05-02T04:04:49.936Z,10
2018-05-02T04:05:49.666Z,10
2018-05-02T04:06:50.173Z,10
2018-05-02T04:07:49.638Z,10
2018-05-02T04:08:50.020Z,10
2018-05-02T04:09:49.620Z,10
2018-05-02T04:10:49.864Z,10
2018-05-02T04:11:49.330Z,10
2018-05-02T04:12:49.575Z,10
2018-05-02T04:13:50.078Z,10
2018-05-02T04:14:50.067Z,10
2018-05-02T04:15:50.055Z,10
2018-05-02T04:16:49.787Z,15
2018-05-02T04:17:49.791Z,15
2018-05-02T04:18:49.745Z,15
2018-05-02T04:19:49.492Z,15
2018-05-02T04:20:49.214Z,15
2018-05-02T04:21:49.973Z,20
2018-05-02T04:22:49.705Z,20
2018-05-02T04:23:49.440Z,20
2018-05-02T04:24:49.428Z,20
2018-05-02T04:25:49.676Z,20
2018-05-02T04:26:49.656Z,25
2018-05-02T04:27:49.639Z,25
2018-05-02T04:28:49.897Z,25
2018-05-02T04:29:49.624Z,30
2018-05-02T04:30:49.091Z,30
2018-05-02T04:31:49.602Z,35
2018-05-02T04:32:49.585Z,35
2018-05-02T04:33:49.567Z,35
2018-05-02T04:34:49.818Z,35
2018-05-02T04:35:49.812Z,35
2018-05-02T04:36:49.531Z,35
2018-05-02T04:37:49.516Z,40
2018-05-02T04:38:49.509Z,45
2018-05-02T04:39:49.494Z,45
2018-05-02T04:40:49.745Z,45
2018-05-02T04:41:49.206Z,45
2018-05-02T04:42:49.456Z,45
2018-05-02T04:43:49.444Z,45
2018-05-02T04:44:49.702Z,45
2018-05-02T04:45:49.161Z,50
2018-05-02T04:46:49.404Z,50
2018-05-02T04:47:49.393Z,45
2018-05-02T04:48:49.380Z,45
2018-05-02T04:49:49.370Z,45
2018-05-02T04:50:49.618Z,45
2018-05-02T04:51:49.084Z,45
2018-05-02T04:52:49.890Z,50
2018-05-02T04:53:49.063Z,55
2018-05-02T04:54:49.304Z,60
2018-05-02T04:55:49.295Z,65
2018-05-02T04:56:49.281Z,65
2018-05-02T04:57:49.272Z,70
2018-05-02T04:58:49.003Z,70
2018-05-02T04:59:49.247Z,70
2018-05-02T05:00:49.525Z,75
2018-05-02T05:01:48.715Z,75
2018-05-02T05:02:48.955Z,75
2018-05-02T05:03:48.682Z,70
2018-05-02T05:04:49.191Z,70
2018-05-02T05:05:49.443Z,75
2018-05-02T05:06:49.221Z,80
2018-05-02T05:07:49.149Z,85
2018-05-02T05:08:49.137Z,90
2018-05-02T05:09:49.124Z,95
2018-05-02T05:10:48.857Z,100
2018-05-02T05:11:48.592Z,105
2018-05-02T05:12:49.096Z,115
2018-05-02T05:13:49.083Z,120
2018-05-02T05:14:49.067Z,120
2018-05-02T05:15:49.357Z,125
2018-05-02T05:16:48.791Z,125
2018-05-02T05:17:48.781Z,130
2018-05-02T05:18:48.767Z,130
2018-05-02T05:19:48.758Z,135
2018-05-02T05:20:49.008Z,140
2018-05-02T05:21:48.477Z,140
2018-05-02T05:22:48.995Z,130
2018-05-02T05:23:48.969Z,125
2018-05-02T05:24:49.220Z,125
2018-05-02T05:25:48.685Z,130
2018-05-02T05:26:48.930Z,130
2018-05-02T05:27:49.022Z,130
2018-05-02T05:28:49.173Z,130
2018-05-02T05:29:48.649Z,135
2018-05-02T05:30:48.892Z,135
2018-05-02T05:31:49.129Z,135
2018-05-02T05:32:48.866Z,135
2018-05-02T05:33:49.113Z,135
2018-05-02T05:34:49.211Z,130
2018-05-02T05:35:49.097Z,135
2018-05-02T05:36:48.563Z,140
2018-05-02T05:37:48.808Z,145
2018-05-02T05:38:48.800Z,150
2018-05-02T05:39:49.104Z,150
2018-05-02T05:40:48.517Z,150
2018-05-02T05:41:48.764Z,150
2018-05-02T05:42:48.510Z,155
2018-05-02T05:43:49.274Z,155
2018-05-02T05:44:48.734Z,150
2018-05-02T05:45:48.723Z,155
2018-05-02T05:46:48.972Z,145
2018-05-02T05:47:48.712Z,145
2018-05-02T05:48:48.773Z,140
2018-05-02T05:49:48.687Z,135
2018-05-02T05:50:48.415Z,130
2018-05-02T05:51:48.693Z,130
2018-05-02T05:52:48.665Z,130
2018-05-02T05:53:48.652Z,135
2018-05-02T05:54:48.632Z,145
2018-05-02T05:55:48.361Z,150
2018-05-02T05:56:48.610Z,160
2018-05-02T05:57:48.345Z,170
2018-05-02T05:58:48.593Z,185
2018-05-02T05:59:48.847Z,190
2018-05-02T06:00:49.014Z,190
2018-05-02T06:01:48.820Z,190
2018-05-02T06:02:48.808Z,185
2018-05-02T06:03:48.804Z,180
2018-05-02T06:04:48.790Z,175
2018-05-02T06:05:48.531Z,155
2018-05-02T06:06:49.183Z,135
2018-05-02T06:07:48.505Z,135
2018-05-02T06:08:48.490Z,150
2018-05-02T06:09:48.476Z,190
2018-05-02T06:10:48.790Z,190
2018-05-02T06:11:48.198Z,205
2018-05-02T06:12:48.045Z,235
2018-05-02T06:13:48.463Z,250
2018-05-02T06:14:48.693Z,250
2018-05-02T06:15:48.679Z,245
2018-05-02T06:16:48.412Z,240
2018-05-02T06:17:48.655Z,230
2018-05-02T06:18:48.604Z,200
2018-05-02T06:19:48.644Z,190
2018-05-02T06:20:48.109Z,180
2018-05-02T06:21:48.358Z,185
2018-05-02T06:22:48.615Z,180
2018-05-02T06:23:48.081Z,175
2018-05-02T06:24:48.327Z,175
2018-05-02T06:25:48.061Z,170
2018-05-02T06:26:48.307Z,170
2018-05-02T06:27:48.040Z,160
2018-05-02T06:28:48.558Z,155
2018-05-02T06:29:48.541Z,160
2018-05-02T06:30:48.271Z,185
2018-05-02T06:31:47.802Z,185
2018-05-02T06:32:48.253Z,185
2018-05-02T06:33:48.240Z,165
2018-05-02T06:34:48.491Z,155
2018-05-02T06:35:47.964Z,140
2018-05-02T06:36:48.486Z,135
2018-05-02T06:37:48.756Z,135
2018-05-02T06:38:47.943Z,135
2018-05-02T06:39:47.934Z,140
2018-05-02T06:40:47.657Z,150
2018-05-02T06:41:48.428Z,170
2018-05-02T06:42:48.152Z,200
2018-05-02T06:43:48.412Z,255
2018-05-02T06:44:48.142Z,270
2018-05-02T06:45:48.123Z,275
2018-05-02T06:46:48.116Z,270
2018-05-02T06:47:48.378Z,255
2018-05-02T06:48:48.354Z,220
2018-05-02T06:49:48.089Z,190
2018-05-02T06:50:48.343Z,155
2018-05-02T06:51:47.814Z,145
2018-05-02T06:52:48.061Z,145
2018-05-02T06:53:48.321Z,140
2018-05-02T06:54:47.952Z,125
2018-05-02T06:55:48.296Z,130
2018-05-02T06:56:48.023Z,125
2018-05-02T06:57:48.015Z,120
2018-05-02T06:58:48.262Z,115
2018-05-02T06:59:47.743Z,110
2018-05-02T07:00:48.037Z,100
2018-05-02T07:01:47.977Z,95
2018-05-02T07:02:47.454Z,90
2018-05-02T07:03:48.230Z,80
2018-05-02T07:04:47.951Z,65
2018-05-02T07:05:47.941Z,60
2018-05-02T07:06:48.199Z,55
2018-05-02T07:07:47.404Z,60
2018-05-02T07:08:48.172Z,60
2018-05-02T07:09:48.195Z,60
2018-05-02T07:10:48.154Z,60
2018-05-02T07:11:48.141Z,60
2018-05-02T07:12:48.138Z,65
2018-05-02T07:13:48.033Z,65
2018-05-02T07:14:47.859Z,65
2018-05-02T07:15:47.842Z,65
2018-05-02T07:16:47.840Z,65
2018-05-02T07:17:48.087Z,70
2018-05-02T07:18:48.067Z,70
2018-05-02T07:19:47.810Z,70
2018-05-02T07:20:47.804Z,70
2018-05-02T07:21:47.278Z,70
2018-05-02T07:22:47.513Z,70
2018-05-02T07:23:47.764Z,70
2018-05-02T07:24:47.751Z,65
2018-05-02T07:25:47.485Z,55
2018-05-02T07:26:47.742Z,55
2018-05-02T07:27:47.982Z,60
2018-05-02T07:28:47.464Z,65
2018-05-02T07:29:47.959Z,65
2018-05-02T07:30:47.438Z,65
2018-05-02T07:31:47.427Z,65
2018-05-02T07:32:48.925Z,70
2018-05-02T07:33:47.410Z,70
2018-05-02T07:34:47.910Z,70
2018-05-02T07:35:47.386Z,70
2018-05-02T07:36:47.892Z,70
2018-05-02T07:37:47.881Z,70
2018-05-02T07:38:47.363Z,75
2018-05-02T07:39:47.347Z,70
2018-05-02T07:40:47.848Z,75
2018-05-02T07:41:47.067Z,80
2018-05-02T07:42:47.317Z,85
2018-05-02T07:43:47.566Z,85
2018-05-02T07:44:47.292Z,75
2018-05-02T07:45:47.810Z,70
2018-05-02T07:46:47.280Z,75
2018-05-02T07:47:47.600Z,75
2018-05-02T07:48:47.727Z,70
2018-05-02T07:49:47.781Z,75
2018-05-02T07:50:47.237Z,80
2018-05-02T07:51:47.485Z,70
2018-05-02T07:52:47.473Z,65
2018-05-02T07:53:47.477Z,65
2018-05-02T07:54:47.194Z,75
2018-05-02T07:55:47.188Z,90
2018-05-02T07:56:47.887Z,90
2018-05-02T07:57:47.689Z,95
2018-05-02T07:58:47.429Z,105
2018-05-02T07:59:47.677Z,110
2018-05-02T08:00:47.400Z,110
2018-05-02T08:01:47.127Z,120
2018-05-02T08:02:46.856Z,130
2018-05-02T08:03:47.375Z,125
2018-05-02T08:04:47.356Z,120
2018-05-02T08:05:47.091Z,115
2018-05-02T08:06:47.338Z,120
2018-05-02T08:07:47.328Z,125
2018-05-02T08:08:47.315Z,135
2018-05-02T08:09:47.046Z,170
2018-05-02T08:10:47.299Z,185
2018-05-02T08:11:47.290Z,170
2018-05-02T08:12:47.273Z,160
2018-05-02T08:13:47.264Z,170
2018-05-02T08:14:46.993Z,190
2018-05-02T08:15:47.246Z,205
2018-05-02T08:16:46.981Z,210
2018-05-02T08:17:47.479Z,210
2018-05-02T08:18:47.222Z,230
2018-05-02T08:19:47.207Z,235
2018-05-02T08:20:47.198Z,230
2018-05-02T08:21:47.188Z,240
2018-05-02T08:22:47.436Z,250
2018-05-02T08:23:47.165Z,270
2018-05-02T08:24:47.416Z,285
2018-05-02T08:25:47.405Z,285
2018-05-02T08:26:47.140Z,275
2018-05-02T08:27:46.873Z,280
2018-05-02T08:28:47.121Z,295
2018-05-02T08:29:47.380Z,295
2018-05-02T08:30:47.109Z,285
2018-05-02T08:31:47.351Z,260
2018-05-02T08:32:47.123Z,240
2018-05-02T08:33:46.825Z,235
2018-05-02T08:34:46.816Z,235
2018-05-02T08:35:47.065Z,230
2018-05-02T08:36:47.053Z,230
2018-05-02T08:37:47.291Z,230
2018-05-02T08:38:46.804Z,240
2018-05-02T08:39:47.288Z,265
2018-05-02T08:40:47.267Z,280
2018-05-02T08:41:46.742Z,280
2018-05-02T08:42:47.259Z,285
2018-05-02T08:43:46.989Z,285
2018-05-02T08:44:46.976Z,280
2018-05-02T08:45:46.968Z,290
2018-05-02T08:46:46.959Z,305
2018-05-02T08:47:47.210Z,300
2018-05-02T08:48:47.199Z,280
2018-05-02T08:49:46.817Z,265
2018-05-02T08:50:47.197Z,255
2018-05-02T08:51:46.926Z,250
2018-05-02T08:52:47.173Z,230
2018-05-02T08:53:47.231Z,220
2018-05-02T08:54:47.161Z,205
2018-05-02T08:55:46.891Z,205
2018-05-02T08:56:46.878Z,215
2018-05-02T08:57:47.124Z,235
2018-05-02T08:58:46.858Z,270
2018-05-02T08:59:46.600Z,310
2018-05-02T09:00:47.110Z,335
2018-05-02T09:01:47.117Z,350
2018-05-02T09:02:46.569Z,380
2018-05-02T09:03:46.956Z,390
2018-05-02T09:04:46.551Z,405
2018-05-02T09:05:46.548Z,420
2018-05-02T09:06:47.054Z,430
2018-05-02T09:07:46.016Z,430
2018-05-02T09:08:46.520Z,435
2018-05-02T09:09:46.515Z,440
2018-05-02T09:10:46.763Z,435
2018-05-02T09:11:47.011Z,430
2018-05-02T09:12:46.756Z,420
2018-05-02T09:13:46.741Z,415
2018-05-02T09:14:46.733Z,395
2018-05-02T09:15:46.648Z,400
2018-05-02T09:16:46.721Z,415
2018-05-02T09:17:46.452Z,420
2018-05-02T09:18:46.962Z,410
2018-05-02T09:19:46.953Z,390
2018-05-02T09:20:46.429Z,370
2018-05-02T09:21:46.680Z,355
2018-05-02T09:22:46.671Z,360
2018-05-02T09:23:46.672Z,385
2018-05-02T09:24:46.657Z,405
2018-05-02T09:25:47.132Z,410
2018-05-02T09:26:46.902Z,410
2018-05-02T09:27:46.894Z,400
2018-05-02T09:28:46.631Z,385
2018-05-02T09:29:46.883Z,360
2018-05-02T09:30:46.363Z,350
2018-05-02T09:31:46.351Z,355
2018-05-02T09:32:46.597Z,365
2018-05-02T09:33:46.336Z,385
2018-05-02T09:34:46.595Z,385
2018-05-02T09:35:46.898Z,370
2018-05-02T09:36:46.626Z,345
2018-05-02T09:37:46.824Z,310
2018-05-02T09:38:46.557Z,310
2018-05-02T09:39:46.560Z,345
2018-05-02T09:40:46.321Z,380
2018-05-02T09:41:46.287Z,420
2018-05-02T09:42:46.530Z,450
2018-05-02T09:43:46.011Z,435
2018-05-02T09:44:46.524Z,430
2018-05-02T09:45:46.272Z,490
2018-05-02T09:46:46.252Z,505
2018-05-02T09:47:45.985Z,455
2018-05-02T09:48:45.976Z,440
2018-05-02T09:49:45.971Z,455
2018-05-02T09:50:46.492Z,485
2018-05-02T09:51:46.478Z,450
2018-05-02T09:52:46.211Z,395
2018-05-02T09:53:46.476Z,375
2018-05-02T09:54:46.463Z,415
2018-05-02T09:55:46.198Z,480
2018-05-02T09:56:46.446Z,515
2018-05-02T09:57:46.192Z,490
2018-05-02T09:58:46.695Z,420
2018-05-02T09:59:46.706Z,330
2018-05-02T10:00:46.424Z,280
2018-05-02T10:01:45.907Z,250
2018-05-02T10:02:46.162Z,270
2018-05-02T10:03:46.198Z,275
2018-05-02T10:04:45.891Z,290
2018-05-02T10:05:46.402Z,310
2018-05-02T10:06:46.391Z,325
2018-05-02T10:07:46.392Z,340
2018-05-02T10:08:46.124Z,350
2018-05-02T10:09:46.708Z,360
2018-05-02T10:10:46.118Z,365
2018-05-02T10:11:46.108Z,345
2018-05-02T10:12:46.760Z,305
2018-05-02T10:13:46.357Z,280
2018-05-02T10:14:46.349Z,255
2018-05-02T10:15:46.089Z,240
2018-05-02T10:16:46.342Z,235
2018-05-02T10:17:46.083Z,230
2018-05-02T10:18:46.587Z,250
2018-05-02T10:19:45.809Z,255
2018-05-02T10:20:46.325Z,255
2018-05-02T10:21:46.330Z,245
2018-05-02T10:22:46.054Z,240
2018-05-02T10:23:45.790Z,245
2018-05-02T10:24:46.560Z,255
2018-05-02T10:25:46.552Z,285
2018-05-02T10:26:46.553Z,305
2018-05-02T10:27:46.287Z,320
2018-05-02T10:28:46.540Z,325
2018-05-02T10:29:46.586Z,340
2018-05-02T10:30:46.278Z,355
2018-05-02T10:31:46.273Z,365
2018-05-02T10:32:46.258Z,375
2018-05-02T10:33:45.998Z,380
2018-05-02T10:34:45.996Z,380
2018-05-02T10:35:46.502Z,380
2018-05-02T10:36:46.243Z,370
2018-05-02T10:37:46.240Z,375
2018-05-02T10:38:46.230Z,370
2018-05-02T10:39:46.228Z,370
2018-05-02T10:40:46.223Z,385
2018-05-02T10:41:46.215Z,410
2018-05-02T10:42:46.480Z,425
2018-05-02T10:43:45.954Z,420
2018-05-02T10:44:46.462Z,405
2018-05-02T10:45:46.198Z,415
2018-05-02T10:46:46.197Z,410
2018-05-02T10:47:46.191Z,395
2018-05-02T10:48:46.185Z,400
2018-05-02T10:49:46.181Z,410
2018-05-02T10:50:46.173Z,410
2018-05-02T10:51:46.185Z,400
2018-05-02T10:52:46.170Z,390
2018-05-02T10:53:46.164Z,375
2018-05-02T10:54:46.165Z,365
2018-05-02T10:55:45.904Z,355
2018-05-02T10:56:45.640Z,335
2018-05-02T10:57:45.635Z,300
2018-05-02T10:58:45.886Z,285
2018-05-02T10:59:46.396Z,275
2018-05-02T11:00:45.876Z,280
2018-05-02T11:01:45.885Z,285
2018-05-02T11:02:45.614Z,280
2018-05-02T11:03:46.381Z,265
2018-05-02T11:04:46.380Z,235
2018-05-02T11:05:46.121Z,230
2018-05-02T11:06:46.376Z,240
2018-05-02T11:07:46.112Z,240
2018-05-02T11:08:45.853Z,235
2018-05-02T11:09:45.841Z,215
2018-05-02T11:10:46.364Z,215
2018-05-02T11:11:46.097Z,215
2018-05-02T11:12:46.340Z,200
2018-05-02T11:13:46.078Z,205
2018-05-02T11:14:46.332Z,225
2018-05-02T11:15:46.071Z,255
2018-05-02T11:16:46.323Z,260
2018-05-02T11:17:45.801Z,245
2018-05-02T11:18:46.061Z,230
2018-05-02T11:19:46.052Z,220
2018-05-02T11:20:46.047Z,210
2018-05-02T11:21:46.314Z,205
2018-05-02T11:22:46.049Z,205
2018-05-02T11:23:45.771Z,215
2018-05-02T11:24:46.032Z,205
2018-05-02T11:25:46.033Z,205
2018-05-02T11:26:46.026Z,200
2018-05-02T11:27:46.021Z,200
2018-05-02T11:28:46.270Z,210
2018-05-02T11:29:46.005Z,235
2018-05-02T11:30:46.294Z,260
2018-05-02T11:31:46.002Z,280
2018-05-02T11:32:46.252Z,295
2018-05-02T11:33:45.480Z,310
2018-05-02T11:34:46.467Z,295
2018-05-02T11:35:45.731Z,275
2018-05-02T11:36:45.983Z,270
2018-05-02T11:37:45.981Z,300
2018-05-02T11:38:46.226Z,330
2018-05-02T11:39:46.228Z,340
2018-05-02T11:40:46.136Z,350
2018-05-02T11:41:46.214Z,390
2018-05-02T11:42:46.212Z,430
2018-05-02T11:43:45.430Z,425
2018-05-02T11:44:46.199Z,360
2018-05-02T11:45:45.936Z,290
2018-05-02T11:46:46.201Z,285
2018-05-02T11:47:45.680Z,310
2018-05-02T11:48:45.671Z,340
2018-05-02T11:49:45.927Z,360
2018-05-02T11:50:45.666Z,390
2018-05-02T11:51:45.667Z,445
2018-05-02T11:52:45.655Z,485
2018-05-02T11:53:45.649Z,515
2018-05-02T11:54:46.178Z,555
2018-05-02T11:55:46.169Z,545
2018-05-02T11:56:45.898Z,500
2018-05-02T11:57:45.980Z,470
2018-05-02T11:58:46.155Z,450
2018-05-02T11:59:46.147Z,450
2018-05-02T12:00:45.883Z,440
2018-05-02T12:01:45.884Z,440
2018-05-02T12:02:46.109Z,425
2018-05-02T12:03:46.185Z,450
2018-05-02T12:04:45.876Z,480
2018-05-02T12:05:45.866Z,485
2018-05-02T12:06:45.862Z,470
2018-05-02T12:07:45.860Z,470
2018-05-02T12:08:45.867Z,520
2018-05-02T12:09:45.598Z,585
2018-05-02T12:10:45.850Z,565
2018-05-02T12:11:46.114Z,505
2018-05-02T12:12:45.862Z,475
2018-05-02T12:13:45.325Z,460
2018-05-02T12:14:46.110Z,465
2018-05-02T12:15:45.840Z,470
2018-05-02T12:16:45.834Z,470
2018-05-02T12:17:45.323Z,490
2018-05-02T12:18:45.831Z,495
2018-05-02T12:19:46.091Z,500
2018-05-02T12:20:46.082Z,485
2018-05-02T12:21:46.080Z,495
2018-05-02T12:22:45.563Z,465
2018-05-02T12:23:45.563Z,455
2018-05-02T12:24:46.075Z,395
2018-05-02T12:25:45.555Z,365
2018-05-02T12:26:45.808Z,365
2018-05-02T12:27:46.294Z,355
2018-05-02T12:28:46.060Z,350
2018-05-02T12:29:45.288Z,345
2018-05-02T12:30:46.063Z,330
2018-05-02T12:31:46.068Z,325
2018-05-02T12:32:45.792Z,350
2018-05-02T12:33:45.789Z,365
2018-05-02T12:34:45.800Z,380
2018-05-02T12:35:45.533Z,410
2018-05-02T12:36:45.787Z,395
2018-05-02T12:37:45.524Z,385
2018-05-02T12:38:46.112Z,395
2018-05-02T12:39:46.032Z,360
2018-05-02T12:40:45.795Z,320
2018-05-02T12:41:46.048Z,310
2018-05-02T12:42:45.769Z,320
2018-05-02T12:43:46.025Z,335
2018-05-02T12:44:45.848Z,355
2018-05-02T12:45:46.017Z,375
2018-05-02T12:46:46.508Z,405
2018-05-02T12:47:46.011Z,425
2018-05-02T12:48:46.013Z,430
2018-05-02T12:49:45.748Z,435
2018-05-02T12:50:46.007Z,450
2018-05-02T12:51:46.002Z,450
2018-05-02T12:52:45.739Z,455
2018-05-02T12:53:45.482Z,470
2018-05-02T12:54:45.733Z,470
2018-05-02T12:55:45.988Z,465
2018-05-02T12:56:45.779Z,440
2018-05-02T12:57:45.985Z,420
2018-05-02T12:58:45.990Z,400
2018-05-02T12:59:45.721Z,375
2018-05-02T13:00:45.732Z,365
2018-05-02T13:01:45.456Z,370
2018-05-02T13:02:45.557Z,380
2018-05-02T13:03:45.969Z,380
2018-05-02T13:04:45.711Z,375
2018-05-02T13:05:45.697Z,360
2018-05-02T13:06:45.453Z,350
2018-05-02T13:07:45.705Z,350
2018-05-02T13:08:45.699Z,355
2018-05-02T13:09:45.688Z,375
2018-05-02T13:10:45.432Z,420
2018-05-02T13:11:45.425Z,415
2018-05-02T13:12:45.423Z,400
2018-05-02T13:13:45.160Z,395
2018-05-02T13:14:45.422Z,410
2018-05-02T13:15:46.246Z,400
2018-05-02T13:16:45.155Z,375
2018-05-02T13:17:45.926Z,400
2018-05-02T13:18:45.666Z,450
2018-05-02T13:19:44.898Z,455
2018-05-02T13:20:45.916Z,465
2018-05-02T13:21:45.921Z,470
2018-05-02T13:22:45.907Z,455
2018-05-02T13:23:45.651Z,425
2018-05-02T13:24:45.977Z,400
2018-05-02T13:25:45.388Z,375
2018-05-02T13:26:45.902Z,370
2018-05-02T13:27:45.896Z,355
2018-05-02T13:28:45.630Z,345
2018-05-02T13:29:45.377Z,330
2018-05-02T13:30:45.890Z,315
2018-05-02T13:31:45.637Z,305
2018-05-02T13:32:45.628Z,290
2018-05-02T13:33:45.879Z,275
2018-05-02T13:34:45.361Z,275
2018-05-02T13:35:45.359Z,295
2018-05-02T13:36:45.614Z,305
2018-05-02T13:37:45.610Z,315
2018-05-02T13:38:45.865Z,340
2018-05-02T13:39:45.863Z,375
2018-05-02T13:40:45.600Z,395
2018-05-02T13:41:45.343Z,400
2018-05-02T13:42:45.605Z,400
2018-05-02T13:43:45.606Z,395
2018-05-02T13:44:45.343Z,405
2018-05-02T13:45:45.842Z,415
2018-05-02T13:46:45.579Z,415
2018-05-02T13:47:45.836Z,400
2018-05-02T13:48:45.061Z,380
2018-05-02T13:49:45.317Z,370
2018-05-02T13:50:45.832Z,370
2018-05-02T13:51:45.830Z,395
2018-05-02T13:52:45.564Z,405
2018-05-02T13:53:45.303Z,410
2018-05-02T13:54:45.565Z,410
2018-05-02T13:55:45.947Z,405
2018-05-02T13:56:45.327Z,375
2018-05-02T13:57:45.291Z,360
2018-05-02T13:58:45.546Z,345
2018-05-02T13:59:45.544Z,350
2018-05-02T14:00:45.538Z,370
2018-05-02T14:01:45.542Z,375
2018-05-02T14:02:45.540Z,365
2018-05-02T14:03:45.545Z,380
2018-05-02T14:04:45.532Z,385
2018-05-02T14:05:45.013Z,385
2018-05-02T14:06:45.264Z,380
2018-05-02T14:07:45.784Z,375